sensor_id;sensor_type;location;lat;lon;timestamp;P1;durP1;ratioP1;P2;durP2;ratioP2
17650;SDS011;26663;59.302;18.082;2023-02-08T00:00:32;8.43;;;2.77;;
17650;SDS011;26663;59.302;18.082;2023-02-08T00:03:37;10.17;;;3.83;;
17650;SDS011;26663;59.302;18.082;2023-02-08T00:06:42;12.50;;;3.30;;
17650;SDS011;26663;59.302;18.082;2023-02-08T00:09:48;14.00;;;3.67;;
17650;SDS011;26663;59.302;18.082;2023-02-08T00:12:53;8.60;;;2.90;;
17650;SDS011;26663;59.302;18.082;2023-02-08T00:16:00;12.83;;;3.20;;
17650;SDS011;26663;59.302;18.082;2023-02-08T00:19:05;10.80;;;3.67;;
17650;SDS011;26663;59.302;18.082;2023-02-08T00:22:11;16.23;;;3.37;;
17650;SDS011;26663;59.302;18.082;2023-02-08T00:25:17;12.10;;;3.43;;
17650;SDS011;26663;59.302;18.082;2023-02-08T00:28:24;11.57;;;3.47;;
17650;SDS011;26663;59.302;18.082;2023-02-08T00:31:32;13.83;;;3.30;;
17650;SDS011;26663;59.302;18.082;2023-02-08T00:34:38;13.93;;;3.23;;
17650;SDS011;26663;59.302;18.082;2023-02-08T00:37:48;16.03;;;3.33;;
17650;SDS011;26663;59.302;18.082;2023-02-08T00:41:42;10.23;;;4.10;;
17650;SDS011;26663;59.302;18.082;2023-02-08T00:44:48;10.43;;;3.30;;
17650;SDS011;26663;59.302;18.082;2023-02-08T00:47:55;8.00;;;3.17;;
17650;SDS011;26663;59.302;18.082;2023-02-08T00:51:01;13.50;;;3.80;;
17650;SDS011;26663;59.302;18.082;2023-02-08T00:54:10;9.67;;;3.23;;
17650;SDS011;26663;59.302;18.082;2023-02-08T00:57:17;12.80;;;4.07;;
17650;SDS011;26663;59.302;18.082;2023-02-08T01:00:22;16.37;;;3.80;;
17650;SDS011;26663;59.302;18.082;2023-02-08T01:03:31;11.83;;;3.53;;
17650;SDS011;26663;59.302;18.082;2023-02-08T01:06:37;9.40;;;3.43;;
17650;SDS011;26663;59.302;18.082;2023-02-08T01:09:43;14.93;;;3.40;;
17650;SDS011;26663;59.302;18.082;2023-02-08T01:12:48;12.00;;;3.67;;
17650;SDS011;26663;59.302;18.082;2023-02-08T01:15:54;16.30;;;3.30;;
17650;SDS011;26663;59.302;18.082;2023-02-08T01:19:02;13.63;;;4.03;;
17650;SDS011;26663;59.302;18.082;2023-02-08T01:22:10;12.97;;;4.10;;
17650;SDS011;26663;59.302;18.082;2023-02-08T01:25:15;17.13;;;4.30;;
17650;SDS011;26663;59.302;18.082;2023-02-08T01:28:22;14.43;;;4.07;;
17650;SDS011;26663;59.302;18.082;2023-02-08T01:31:29;19.33;;;4.27;;
17650;SDS011;26663;59.302;18.082;2023-02-08T01:34:36;21.97;;;4.70;;
17650;SDS011;26663;59.302;18.082;2023-02-08T01:37:44;18.77;;;5.30;;
17650;SDS011;26663;59.302;18.082;2023-02-08T01:40:49;24.50;;;5.27;;
17650;SDS011;26663;59.302;18.082;2023-02-08T01:43:59;16.30;;;4.93;;
17650;SDS011;26663;59.302;18.082;2023-02-08T01:47:08;23.60;;;5.33;;
17650;SDS011;26663;59.302;18.082;2023-02-08T01:50:16;21.23;;;5.33;;
17650;SDS011;26663;59.302;18.082;2023-02-08T01:53:23;18.33;;;4.83;;
17650;SDS011;26663;59.302;18.082;2023-02-08T01:56:30;24.50;;;5.60;;
17650;SDS011;26663;59.302;18.082;2023-02-08T01:59:38;27.60;;;6.10;;
17650;SDS011;26663;59.302;18.082;2023-02-08T02:02:45;22.47;;;5.67;;
17650;SDS011;26663;59.302;18.082;2023-02-08T02:05:53;28.97;;;5.40;;
17650;SDS011;26663;59.302;18.082;2023-02-08T02:09:02;21.87;;;6.40;;
17650;SDS011;26663;59.302;18.082;2023-02-08T02:12:14;24.53;;;5.60;;
17650;SDS011;26663;59.302;18.082;2023-02-08T02:15:20;24.27;;;5.73;;
17650;SDS011;26663;59.302;18.082;2023-02-08T02:18:26;25.43;;;5.47;;
17650;SDS011;26663;59.302;18.082;2023-02-08T02:21:44;23.90;;;5.33;;
17650;SDS011;26663;59.302;18.082;2023-02-08T02:25:11;19.23;;;5.37;;
17650;SDS011;26663;59.302;18.082;2023-02-08T02:32:12;24.37;;;5.70;;
17650;SDS011;26663;59.302;18.082;2023-02-08T02:35:35;20.63;;;5.73;;
17650;SDS011;26663;59.302;18.082;2023-02-08T02:38:49;21.80;;;5.90;;
17650;SDS011;26663;59.302;18.082;2023-02-08T02:42:05;30.77;;;6.90;;
17650;SDS011;26663;59.302;18.082;2023-02-08T02:45:31;26.93;;;6.20;;
17650;SDS011;26663;59.302;18.082;2023-02-08T02:48:41;26.10;;;6.60;;
17650;SDS011;26663;59.302;18.082;2023-02-08T02:51:52;27.50;;;6.37;;
17650;SDS011;26663;59.302;18.082;2023-02-08T02:55:02;32.40;;;6.10;;
17650;SDS011;26663;59.302;18.082;2023-02-08T02:58:10;18.33;;;5.80;;
17650;SDS011;26663;59.302;18.082;2023-02-08T03:01:22;27.23;;;6.13;;
17650;SDS011;26663;59.302;18.082;2023-02-08T03:08:00;20.73;;;5.93;;
17650;SDS011;26663;59.302;18.082;2023-02-08T03:11:18;27.53;;;5.77;;
17650;SDS011;26663;59.302;18.082;2023-02-08T03:14:33;21.13;;;6.50;;
17650;SDS011;26663;59.302;18.082;2023-02-08T03:17:46;25.27;;;6.00;;
17650;SDS011;26663;59.302;18.082;2023-02-08T03:20:57;21.57;;;6.30;;
17650;SDS011;26663;59.302;18.082;2023-02-08T03:24:07;24.80;;;6.60;;
17650;SDS011;26663;59.302;18.082;2023-02-08T03:27:21;23.53;;;6.33;;
17650;SDS011;26663;59.302;18.082;2023-02-08T03:30:35;25.20;;;5.93;;
17650;SDS011;26663;59.302;18.082;2023-02-08T03:33:47;18.40;;;5.90;;
17650;SDS011;26663;59.302;18.082;2023-02-08T03:36:57;21.40;;;6.57;;
17650;SDS011;26663;59.302;18.082;2023-02-08T03:40:05;29.40;;;6.87;;
17650;SDS011;26663;59.302;18.082;2023-02-08T03:43:15;20.43;;;6.20;;
17650;SDS011;26663;59.302;18.082;2023-02-08T03:46:23;19.23;;;6.53;;
17650;SDS011;26663;59.302;18.082;2023-02-08T03:49:31;21.20;;;6.57;;
17650;SDS011;26663;59.302;18.082;2023-02-08T03:52:42;19.07;;;6.30;;
17650;SDS011;26663;59.302;18.082;2023-02-08T03:55:50;24.83;;;6.60;;
17650;SDS011;26663;59.302;18.082;2023-02-08T03:58:59;16.87;;;6.47;;
17650;SDS011;26663;59.302;18.082;2023-02-08T04:02:15;25.17;;;6.17;;
17650;SDS011;26663;59.302;18.082;2023-02-08T04:05:24;25.93;;;6.43;;
17650;SDS011;26663;59.302;18.082;2023-02-08T04:08:31;23.33;;;7.03;;
17650;SDS011;26663;59.302;18.082;2023-02-08T04:11:36;18.30;;;6.30;;
17650;SDS011;26663;59.302;18.082;2023-02-08T04:14:41;25.77;;;6.93;;
17650;SDS011;26663;59.302;18.082;2023-02-08T04:17:46;17.47;;;6.57;;
17650;SDS011;26663;59.302;18.082;2023-02-08T04:20:51;15.50;;;6.87;;
17650;SDS011;26663;59.302;18.082;2023-02-08T04:23:57;22.20;;;6.47;;
17650;SDS011;26663;59.302;18.082;2023-02-08T04:27:03;19.03;;;6.50;;
17650;SDS011;26663;59.302;18.082;2023-02-08T04:30:10;21.00;;;6.60;;
17650;SDS011;26663;59.302;18.082;2023-02-08T04:33:16;24.67;;;6.57;;
17650;SDS011;26663;59.302;18.082;2023-02-08T04:36:21;19.57;;;6.30;;
17650;SDS011;26663;59.302;18.082;2023-02-08T04:39:27;20.67;;;6.20;;
17650;SDS011;26663;59.302;18.082;2023-02-08T04:42:33;16.57;;;6.37;;
17650;SDS011;26663;59.302;18.082;2023-02-08T04:45:39;19.40;;;7.10;;
17650;SDS011;26663;59.302;18.082;2023-02-08T04:48:45;15.37;;;6.23;;
17650;SDS011;26663;59.302;18.082;2023-02-08T04:51:50;19.27;;;6.40;;
17650;SDS011;26663;59.302;18.082;2023-02-08T04:54:56;15.67;;;6.50;;
17650;SDS011;26663;59.302;18.082;2023-02-08T04:58:02;24.03;;;6.83;;
17650;SDS011;26663;59.302;18.082;2023-02-08T05:01:07;18.07;;;6.67;;
17650;SDS011;26663;59.302;18.082;2023-02-08T05:04:13;16.87;;;6.70;;
17650;SDS011;26663;59.302;18.082;2023-02-08T05:07:18;22.80;;;6.37;;
17650;SDS011;26663;59.302;18.082;2023-02-08T05:10:25;20.00;;;6.63;;
17650;SDS011;26663;59.302;18.082;2023-02-08T05:13:30;18.73;;;7.27;;
17650;SDS011;26663;59.302;18.082;2023-02-08T05:16:35;17.33;;;6.60;;
17650;SDS011;26663;59.302;18.082;2023-02-08T05:19:41;16.47;;;6.70;;
17650;SDS011;26663;59.302;18.082;2023-02-08T05:22:46;21.40;;;7.90;;
17650;SDS011;26663;59.302;18.082;2023-02-08T05:25:52;25.93;;;8.17;;
17650;SDS011;26663;59.302;18.082;2023-02-08T05:28:58;22.20;;;7.97;;
17650;SDS011;26663;59.302;18.082;2023-02-08T05:32:03;18.57;;;7.90;;
17650;SDS011;26663;59.302;18.082;2023-02-08T05:35:09;25.07;;;8.90;;
17650;SDS011;26663;59.302;18.082;2023-02-08T05:38:14;19.37;;;7.90;;
17650;SDS011;26663;59.302;18.082;2023-02-08T05:41:23;22.70;;;7.57;;
17650;SDS011;26663;59.302;18.082;2023-02-08T05:44:28;20.43;;;8.27;;
17650;SDS011;26663;59.302;18.082;2023-02-08T05:47:33;24.13;;;8.50;;
17650;SDS011;26663;59.302;18.082;2023-02-08T05:50:40;22.03;;;8.23;;
17650;SDS011;26663;59.302;18.082;2023-02-08T05:53:49;22.20;;;8.23;;
17650;SDS011;26663;59.302;18.082;2023-02-08T05:56:55;20.97;;;7.80;;
17650;SDS011;26663;59.302;18.082;2023-02-08T06:00:00;18.77;;;7.77;;
17650;SDS011;26663;59.302;18.082;2023-02-08T06:03:07;22.23;;;7.90;;
17650;SDS011;26663;59.302;18.082;2023-02-08T06:06:12;29.20;;;8.20;;
17650;SDS011;26663;59.302;18.082;2023-02-08T06:09:17;23.80;;;8.67;;
17650;SDS011;26663;59.302;18.082;2023-02-08T06:12:24;19.47;;;8.17;;
17650;SDS011;26663;59.302;18.082;2023-02-08T06:15:30;24.30;;;8.40;;
17650;SDS011;26663;59.302;18.082;2023-02-08T06:18:35;21.20;;;8.67;;
17650;SDS011;26663;59.302;18.082;2023-02-08T06:21:40;25.80;;;9.00;;
17650;SDS011;26663;59.302;18.082;2023-02-08T06:24:45;25.13;;;9.10;;
17650;SDS011;26663;59.302;18.082;2023-02-08T06:27:52;30.73;;;9.40;;
17650;SDS011;26663;59.302;18.082;2023-02-08T06:30:59;23.10;;;8.83;;
17650;SDS011;26663;59.302;18.082;2023-02-08T06:34:04;29.30;;;9.93;;
17650;SDS011;26663;59.302;18.082;2023-02-08T06:37:09;21.80;;;8.90;;
17650;SDS011;26663;59.302;18.082;2023-02-08T06:40:15;29.33;;;9.83;;
17650;SDS011;26663;59.302;18.082;2023-02-08T06:43:22;33.20;;;10.70;;
17650;SDS011;26663;59.302;18.082;2023-02-08T06:46:27;28.60;;;10.63;;
17650;SDS011;26663;59.302;18.082;2023-02-08T06:49:32;31.77;;;10.17;;
17650;SDS011;26663;59.302;18.082;2023-02-08T06:52:37;35.27;;;10.37;;
17650;SDS011;26663;59.302;18.082;2023-02-08T06:55:46;35.63;;;10.57;;
17650;SDS011;26663;59.302;18.082;2023-02-08T06:58:53;27.93;;;10.60;;
17650;SDS011;26663;59.302;18.082;2023-02-08T07:02:00;24.90;;;10.00;;
17650;SDS011;26663;59.302;18.082;2023-02-08T07:05:06;33.33;;;10.43;;
17650;SDS011;26663;59.302;18.082;2023-02-08T07:08:12;38.67;;;10.57;;
17650;SDS011;26663;59.302;18.082;2023-02-08T07:11:18;22.97;;;10.10;;
17650;SDS011;26663;59.302;18.082;2023-02-08T07:14:25;30.43;;;10.53;;
17650;SDS011;26663;59.302;18.082;2023-02-08T07:17:31;22.10;;;9.83;;
17650;SDS011;26663;59.302;18.082;2023-02-08T07:20:36;34.03;;;10.83;;
17650;SDS011;26663;59.302;18.082;2023-02-08T07:23:41;22.10;;;9.40;;
17650;SDS011;26663;59.302;18.082;2023-02-08T07:26:47;27.90;;;9.80;;
17650;SDS011;26663;59.302;18.082;2023-02-08T07:29:53;34.90;;;10.20;;
17650;SDS011;26663;59.302;18.082;2023-02-08T07:32:59;21.87;;;9.50;;
17650;SDS011;26663;59.302;18.082;2023-02-08T07:36:04;25.43;;;8.97;;
17650;SDS011;26663;59.302;18.082;2023-02-08T07:39:10;28.53;;;9.07;;
17650;SDS011;26663;59.302;18.082;2023-02-08T07:42:16;20.80;;;8.90;;
17650;SDS011;26663;59.302;18.082;2023-02-08T07:45:37;22.97;;;7.90;;
17650;SDS011;26663;59.302;18.082;2023-02-08T07:48:43;29.03;;;8.77;;
17650;SDS011;26663;59.302;18.082;2023-02-08T07:51:48;17.97;;;7.70;;
17650;SDS011;26663;59.302;18.082;2023-02-08T07:54:53;29.53;;;9.10;;
17650;SDS011;26663;59.302;18.082;2023-02-08T07:57:58;25.53;;;8.40;;
17650;SDS011;26663;59.302;18.082;2023-02-08T08:01:05;22.37;;;8.30;;
17650;SDS011;26663;59.302;18.082;2023-02-08T08:04:23;20.13;;;8.07;;
17650;SDS011;26663;59.302;18.082;2023-02-08T08:07:29;19.20;;;7.63;;
17650;SDS011;26663;59.302;18.082;2023-02-08T08:10:34;14.13;;;7.07;;
17650;SDS011;26663;59.302;18.082;2023-02-08T08:13:39;20.60;;;7.23;;
17650;SDS011;26663;59.302;18.082;2023-02-08T08:16:46;13.93;;;7.07;;
17650;SDS011;26663;59.302;18.082;2023-02-08T08:19:51;21.57;;;7.37;;
17650;SDS011;26663;59.302;18.082;2023-02-08T08:22:56;18.20;;;7.40;;
17650;SDS011;26663;59.302;18.082;2023-02-08T08:26:05;21.13;;;6.80;;
17650;SDS011;26663;59.302;18.082;2023-02-08T08:29:11;15.20;;;6.33;;
17650;SDS011;26663;59.302;18.082;2023-02-08T08:32:18;14.00;;;6.83;;
17650;SDS011;26663;59.302;18.082;2023-02-08T08:35:25;17.73;;;6.67;;
17650;SDS011;26663;59.302;18.082;2023-02-08T08:38:30;17.07;;;6.50;;
17650;SDS011;26663;59.302;18.082;2023-02-08T08:41:36;12.10;;;6.00;;
17650;SDS011;26663;59.302;18.082;2023-02-08T08:44:41;12.50;;;6.47;;
17650;SDS011;26663;59.302;18.082;2023-02-08T08:47:47;16.00;;;6.10;;
17650;SDS011;26663;59.302;18.082;2023-02-08T08:50:52;18.43;;;5.80;;
17650;SDS011;26663;59.302;18.082;2023-02-08T08:53:59;18.90;;;5.57;;
17650;SDS011;26663;59.302;18.082;2023-02-08T08:57:04;14.20;;;5.50;;
17650;SDS011;26663;59.302;18.082;2023-02-08T09:00:11;18.03;;;6.00;;
17650;SDS011;26663;59.302;18.082;2023-02-08T09:03:19;18.00;;;6.17;;
17650;SDS011;26663;59.302;18.082;2023-02-08T09:06:24;16.13;;;5.77;;
17650;SDS011;26663;59.302;18.082;2023-02-08T09:09:29;16.30;;;5.40;;
17650;SDS011;26663;59.302;18.082;2023-02-08T09:12:34;14.00;;;5.70;;
17650;SDS011;26663;59.302;18.082;2023-02-08T09:15:39;11.37;;;5.67;;
17650;SDS011;26663;59.302;18.082;2023-02-08T09:18:46;13.00;;;5.40;;
17650;SDS011;26663;59.302;18.082;2023-02-08T09:21:51;11.50;;;5.27;;
17650;SDS011;26663;59.302;18.082;2023-02-08T09:24:57;11.83;;;5.40;;
17650;SDS011;26663;59.302;18.082;2023-02-08T09:28:03;15.63;;;5.80;;
17650;SDS011;26663;59.302;18.082;2023-02-08T09:31:09;10.07;;;4.73;;
17650;SDS011;26663;59.302;18.082;2023-02-08T09:34:17;9.33;;;5.20;;
17650;SDS011;26663;59.302;18.082;2023-02-08T09:37:31;19.10;;;5.80;;
17650;SDS011;26663;59.302;18.082;2023-02-08T09:40:37;20.37;;;5.50;;
17650;SDS011;26663;59.302;18.082;2023-02-08T09:43:47;11.73;;;5.00;;
17650;SDS011;26663;59.302;18.082;2023-02-08T09:46:58;15.10;;;5.63;;
17650;SDS011;26663;59.302;18.082;2023-02-08T09:50:09;12.20;;;5.43;;
17650;SDS011;26663;59.302;18.082;2023-02-08T09:53:18;15.67;;;5.23;;
17650;SDS011;26663;59.302;18.082;2023-02-08T09:56:26;10.40;;;4.30;;
17650;SDS011;26663;59.302;18.082;2023-02-08T09:59:32;10.27;;;4.43;;
17650;SDS011;26663;59.302;18.082;2023-02-08T10:02:38;8.03;;;4.53;;
17650;SDS011;26663;59.302;18.082;2023-02-08T10:05:45;18.50;;;5.60;;
17650;SDS011;26663;59.302;18.082;2023-02-08T10:08:51;10.10;;;5.23;;
17650;SDS011;26663;59.302;18.082;2023-02-08T10:12:01;15.33;;;5.20;;
17650;SDS011;26663;59.302;18.082;2023-02-08T10:15:14;15.57;;;5.47;;
17650;SDS011;26663;59.302;18.082;2023-02-08T10:18:32;13.80;;;5.47;;
17650;SDS011;26663;59.302;18.082;2023-02-08T10:21:46;13.10;;;5.27;;
17650;SDS011;26663;59.302;18.082;2023-02-08T10:28:37;11.03;;;5.07;;
17650;SDS011;26663;59.302;18.082;2023-02-08T10:32:14;9.27;;;4.73;;
17650;SDS011;26663;59.302;18.082;2023-02-08T10:35:43;8.60;;;4.33;;
17650;SDS011;26663;59.302;18.082;2023-02-08T10:39:00;16.60;;;4.70;;
17650;SDS011;26663;59.302;18.082;2023-02-08T10:42:14;12.73;;;4.83;;
17650;SDS011;26663;59.302;18.082;2023-02-08T10:45:31;6.10;;;4.00;;
17650;SDS011;26663;59.302;18.082;2023-02-08T10:48:47;8.73;;;4.30;;
17650;SDS011;26663;59.302;18.082;2023-02-08T10:52:06;8.67;;;3.97;;
17650;SDS011;26663;59.302;18.082;2023-02-08T10:55:14;8.63;;;4.03;;
17650;SDS011;26663;59.302;18.082;2023-02-08T10:58:21;17.47;;;4.27;;
17650;SDS011;26663;59.302;18.082;2023-02-08T11:01:30;12.27;;;3.80;;
17650;SDS011;26663;59.302;18.082;2023-02-08T11:04:36;9.97;;;4.20;;
17650;SDS011;26663;59.302;18.082;2023-02-08T11:08:05;6.53;;;3.80;;
17650;SDS011;26663;59.302;18.082;2023-02-08T11:11:15;10.70;;;3.97;;
17650;SDS011;26663;59.302;18.082;2023-02-08T11:14:22;8.00;;;3.30;;
17650;SDS011;26663;59.302;18.082;2023-02-08T11:17:51;6.70;;;3.20;;
17650;SDS011;26663;59.302;18.082;2023-02-08T11:21:01;8.43;;;3.20;;
17650;SDS011;26663;59.302;18.082;2023-02-08T11:24:20;6.73;;;3.83;;
17650;SDS011;26663;59.302;18.082;2023-02-08T11:27:33;8.83;;;3.80;;
17650;SDS011;26663;59.302;18.082;2023-02-08T11:30:59;15.30;;;3.37;;
17650;SDS011;26663;59.302;18.082;2023-02-08T11:34:05;6.57;;;3.87;;
17650;SDS011;26663;59.302;18.082;2023-02-08T11:37:22;7.17;;;3.47;;
17650;SDS011;26663;59.302;18.082;2023-02-08T11:40:41;6.80;;;3.60;;
17650;SDS011;26663;59.302;18.082;2023-02-08T11:43:55;7.53;;;4.00;;
17650;SDS011;26663;59.302;18.082;2023-02-08T11:47:04;6.80;;;3.63;;
17650;SDS011;26663;59.302;18.082;2023-02-08T11:50:19;6.60;;;4.03;;
17650;SDS011;26663;59.302;18.082;2023-02-08T11:53:27;4.40;;;3.10;;
17650;SDS011;26663;59.302;18.082;2023-02-08T11:56:38;12.70;;;4.20;;
17650;SDS011;26663;59.302;18.082;2023-02-08T11:59:44;4.30;;;3.13;;
17650;SDS011;26663;59.302;18.082;2023-02-08T12:02:49;9.63;;;3.77;;
17650;SDS011;26663;59.302;18.082;2023-02-08T12:06:05;11.57;;;4.03;;
17650;SDS011;26663;59.302;18.082;2023-02-08T12:09:29;8.50;;;3.90;;
17650;SDS011;26663;59.302;18.082;2023-02-08T12:12:55;10.53;;;3.87;;
17650;SDS011;26663;59.302;18.082;2023-02-08T12:16:24;4.80;;;3.40;;
17650;SDS011;26663;59.302;18.082;2023-02-08T12:19:41;7.70;;;3.70;;
17650;SDS011;26663;59.302;18.082;2023-02-08T12:23:13;7.83;;;3.70;;
17650;SDS011;26663;59.302;18.082;2023-02-08T12:26:48;12.07;;;3.77;;
17650;SDS011;26663;59.302;18.082;2023-02-08T12:30:00;8.40;;;3.47;;
17650;SDS011;26663;59.302;18.082;2023-02-08T12:33:22;7.63;;;3.60;;
17650;SDS011;26663;59.302;18.082;2023-02-08T12:36:40;5.47;;;3.50;;
17650;SDS011;26663;59.302;18.082;2023-02-08T12:39:51;5.60;;;3.63;;
17650;SDS011;26663;59.302;18.082;2023-02-08T12:43:21;11.37;;;4.20;;
17650;SDS011;26663;59.302;18.082;2023-02-08T12:46:42;12.17;;;3.50;;
17650;SDS011;26663;59.302;18.082;2023-02-08T12:50:00;6.17;;;3.37;;
17650;SDS011;26663;59.302;18.082;2023-02-08T12:53:14;7.07;;;3.50;;
17650;SDS011;26663;59.302;18.082;2023-02-08T12:56:24;8.37;;;3.50;;
17650;SDS011;26663;59.302;18.082;2023-02-08T12:59:33;4.20;;;3.70;;
17650;SDS011;26663;59.302;18.082;2023-02-08T13:02:42;6.77;;;3.30;;
17650;SDS011;26663;59.302;18.082;2023-02-08T13:05:52;5.37;;;3.17;;
17650;SDS011;26663;59.302;18.082;2023-02-08T13:09:04;9.67;;;3.20;;
17650;SDS011;26663;59.302;18.082;2023-02-08T13:12:17;4.30;;;3.00;;
17650;SDS011;26663;59.302;18.082;2023-02-08T13:15:26;9.00;;;3.37;;
17650;SDS011;26663;59.302;18.082;2023-02-08T13:18:36;7.47;;;3.10;;
17650;SDS011;26663;59.302;18.082;2023-02-08T13:21:47;3.43;;;3.00;;
17650;SDS011;26663;59.302;18.082;2023-02-08T13:24:53;9.97;;;2.83;;
17650;SDS011;26663;59.302;18.082;2023-02-08T13:28:12;4.20;;;2.83;;
17650;SDS011;26663;59.302;18.082;2023-02-08T13:31:23;4.20;;;2.97;;
17650;SDS011;26663;59.302;18.082;2023-02-08T13:34:32;9.83;;;3.80;;
17650;SDS011;26663;59.302;18.082;2023-02-08T13:37:41;6.20;;;2.97;;
17650;SDS011;26663;59.302;18.082;2023-02-08T13:41:00;5.07;;;2.90;;
17650;SDS011;26663;59.302;18.082;2023-02-08T13:44:16;4.07;;;3.30;;
17650;SDS011;26663;59.302;18.082;2023-02-08T13:47:23;6.73;;;3.03;;
17650;SDS011;26663;59.302;18.082;2023-02-08T13:50:40;4.63;;;3.23;;
17650;SDS011;26663;59.302;18.082;2023-02-08T14:01:01;2.93;;;2.57;;
17650;SDS011;26663;59.302;18.082;2023-02-08T14:04:28;3.30;;;2.97;;
17650;SDS011;26663;59.302;18.082;2023-02-08T14:07:39;4.07;;;3.10;;
17650;SDS011;26663;59.302;18.082;2023-02-08T14:10:49;3.23;;;3.00;;
17650;SDS011;26663;59.302;18.082;2023-02-08T14:14:05;4.07;;;2.90;;
17650;SDS011;26663;59.302;18.082;2023-02-08T14:17:18;3.20;;;2.80;;
17650;SDS011;26663;59.302;18.082;2023-02-08T14:20:30;5.80;;;3.30;;
17650;SDS011;26663;59.302;18.082;2023-02-08T14:23:37;7.20;;;3.40;;
17650;SDS011;26663;59.302;18.082;2023-02-08T14:26:44;3.60;;;3.30;;
17650;SDS011;26663;59.302;18.082;2023-02-08T14:29:57;7.07;;;3.10;;
17650;SDS011;26663;59.302;18.082;2023-02-08T14:33:09;3.83;;;3.50;;
17650;SDS011;26663;59.302;18.082;2023-02-08T14:36:27;5.07;;;3.57;;
17650;SDS011;26663;59.302;18.082;2023-02-08T14:39:35;5.90;;;3.73;;
17650;SDS011;26663;59.302;18.082;2023-02-08T14:42:54;5.20;;;3.50;;
17650;SDS011;26663;59.302;18.082;2023-02-08T14:49:44;3.60;;;3.33;;
17650;SDS011;26663;59.302;18.082;2023-02-08T14:52:53;3.67;;;3.30;;
17650;SDS011;26663;59.302;18.082;2023-02-08T14:56:04;6.10;;;4.20;;
17650;SDS011;26663;59.302;18.082;2023-02-08T14:59:19;4.37;;;3.97;;
17650;SDS011;26663;59.302;18.082;2023-02-08T15:02:25;6.37;;;3.77;;
17650;SDS011;26663;59.302;18.082;2023-02-08T15:05:34;5.23;;;3.90;;
17650;SDS011;26663;59.302;18.082;2023-02-08T15:08:42;4.27;;;4.00;;
17650;SDS011;26663;59.302;18.082;2023-02-08T15:11:57;4.70;;;4.13;;
17650;SDS011;26663;59.302;18.082;2023-02-08T15:15:06;4.23;;;3.80;;
17650;SDS011;26663;59.302;18.082;2023-02-08T15:18:27;6.53;;;4.67;;
17650;SDS011;26663;59.302;18.082;2023-02-08T15:21:33;5.70;;;4.80;;
17650;SDS011;26663;59.302;18.082;2023-02-08T15:24:47;6.97;;;5.10;;
17650;SDS011;26663;59.302;18.082;2023-02-08T15:27:55;8.70;;;5.70;;
17650;SDS011;26663;59.302;18.082;2023-02-08T15:31:03;10.50;;;6.03;;
17650;SDS011;26663;59.302;18.082;2023-02-08T15:34:11;7.07;;;5.57;;
17650;SDS011;26663;59.302;18.082;2023-02-08T15:37:17;12.63;;;6.80;;
17650;SDS011;26663;59.302;18.082;2023-02-08T15:40:25;9.33;;;6.27;;
17650;SDS011;26663;59.302;18.082;2023-02-08T15:43:31;9.83;;;6.17;;
17650;SDS011;26663;59.302;18.082;2023-02-08T15:46:39;8.23;;;5.93;;
17650;SDS011;26663;59.302;18.082;2023-02-08T15:49:45;7.10;;;6.00;;
17650;SDS011;26663;59.302;18.082;2023-02-08T15:52:56;9.33;;;5.77;;
17650;SDS011;26663;59.302;18.082;2023-02-08T15:56:02;6.43;;;5.53;;
17650;SDS011;26663;59.302;18.082;2023-02-08T15:59:13;10.00;;;5.70;;
17650;SDS011;26663;59.302;18.082;2023-02-08T16:02:26;5.43;;;5.03;;
17650;SDS011;26663;59.302;18.082;2023-02-08T16:05:32;7.37;;;5.47;;
17650;SDS011;26663;59.302;18.082;2023-02-08T16:08:39;6.13;;;5.53;;
17650;SDS011;26663;59.302;18.082;2023-02-08T16:11:46;10.30;;;5.50;;
17650;SDS011;26663;59.302;18.082;2023-02-08T16:14:52;6.23;;;5.10;;
17650;SDS011;26663;59.302;18.082;2023-02-08T16:18:00;5.30;;;4.63;;
17650;SDS011;26663;59.302;18.082;2023-02-08T16:21:06;7.13;;;5.03;;
17650;SDS011;26663;59.302;18.082;2023-02-08T16:24:25;6.87;;;5.13;;
17650;SDS011;26663;59.302;18.082;2023-02-08T16:27:33;10.27;;;4.67;;
17650;SDS011;26663;59.302;18.082;2023-02-08T16:30:38;5.63;;;4.83;;
17650;SDS011;26663;59.302;18.082;2023-02-08T16:33:56;5.07;;;4.77;;
17650;SDS011;26663;59.302;18.082;2023-02-08T16:37:04;6.03;;;5.20;;
17650;SDS011;26663;59.302;18.082;2023-02-08T16:40:32;6.40;;;4.60;;
17650;SDS011;26663;59.302;18.082;2023-02-08T16:43:50;5.03;;;4.73;;
17650;SDS011;26663;59.302;18.082;2023-02-08T16:47:25;5.20;;;4.60;;
17650;SDS011;26663;59.302;18.082;2023-02-08T16:50:33;4.67;;;4.33;;
17650;SDS011;26663;59.302;18.082;2023-02-08T16:53:39;4.60;;;4.40;;
17650;SDS011;26663;59.302;18.082;2023-02-08T16:56:49;7.90;;;4.90;;
17650;SDS011;26663;59.302;18.082;2023-02-08T17:00:01;7.50;;;4.80;;
17650;SDS011;26663;59.302;18.082;2023-02-08T17:03:09;5.13;;;4.73;;
17650;SDS011;26663;59.302;18.082;2023-02-08T17:06:19;4.30;;;4.10;;
17650;SDS011;26663;59.302;18.082;2023-02-08T17:09:28;4.47;;;4.27;;
17650;SDS011;26663;59.302;18.082;2023-02-08T17:12:37;4.77;;;4.37;;
17650;SDS011;26663;59.302;18.082;2023-02-08T17:15:46;7.13;;;4.30;;
17650;SDS011;26663;59.302;18.082;2023-02-08T17:18:51;4.73;;;4.40;;
17650;SDS011;26663;59.302;18.082;2023-02-08T17:21:57;5.37;;;4.40;;
17650;SDS011;26663;59.302;18.082;2023-02-08T17:25:03;4.37;;;4.10;;
17650;SDS011;26663;59.302;18.082;2023-02-08T17:28:13;5.03;;;4.57;;
17650;SDS011;26663;59.302;18.082;2023-02-08T17:31:20;4.60;;;4.40;;
17650;SDS011;26663;59.302;18.082;2023-02-08T17:34:25;4.93;;;4.60;;
17650;SDS011;26663;59.302;18.082;2023-02-08T17:37:31;15.87;;;7.23;;
17650;SDS011;26663;59.302;18.082;2023-02-08T17:40:37;5.07;;;4.77;;
17650;SDS011;26663;59.302;18.082;2023-02-08T17:43:47;6.23;;;5.30;;
17650;SDS011;26663;59.302;18.082;2023-02-08T17:46:53;4.93;;;4.53;;
17650;SDS011;26663;59.302;18.082;2023-02-08T17:49:58;4.77;;;4.43;;
17650;SDS011;26663;59.302;18.082;2023-02-08T17:53:04;6.50;;;4.43;;
17650;SDS011;26663;59.302;18.082;2023-02-08T17:56:12;4.27;;;4.00;;
17650;SDS011;26663;59.302;18.082;2023-02-08T17:59:19;3.90;;;3.60;;
17650;SDS011;26663;59.302;18.082;2023-02-08T18:02:25;4.50;;;4.00;;
17650;SDS011;26663;59.302;18.082;2023-02-08T18:05:31;4.23;;;3.97;;
17650;SDS011;26663;59.302;18.082;2023-02-08T18:08:36;3.97;;;3.67;;
17650;SDS011;26663;59.302;18.082;2023-02-08T18:11:41;4.27;;;3.70;;
17650;SDS011;26663;59.302;18.082;2023-02-08T18:14:48;3.90;;;3.70;;
17650;SDS011;26663;59.302;18.082;2023-02-08T18:17:53;3.83;;;3.53;;
17650;SDS011;26663;59.302;18.082;2023-02-08T18:20:58;3.50;;;3.40;;
17650;SDS011;26663;59.302;18.082;2023-02-08T18:24:03;3.30;;;3.10;;
17650;SDS011;26663;59.302;18.082;2023-02-08T18:27:09;3.77;;;3.57;;
17650;SDS011;26663;59.302;18.082;2023-02-08T18:33:23;3.53;;;3.43;;
17650;SDS011;26663;59.302;18.082;2023-02-08T18:36:28;4.40;;;3.40;;
17650;SDS011;26663;59.302;18.082;2023-02-08T18:39:33;3.27;;;3.07;;
17650;SDS011;26663;59.302;18.082;2023-02-08T18:42:39;3.87;;;3.60;;
17650;SDS011;26663;59.302;18.082;2023-02-08T18:45:46;3.60;;;3.50;;
17650;SDS011;26663;59.302;18.082;2023-02-08T18:49:04;3.57;;;3.47;;
17650;SDS011;26663;59.302;18.082;2023-02-08T18:52:11;3.83;;;3.63;;
17650;SDS011;26663;59.302;18.082;2023-02-08T18:55:17;3.60;;;3.50;;
17650;SDS011;26663;59.302;18.082;2023-02-08T18:58:22;3.80;;;3.30;;